Pagrindinis puslapis
METAR-TAF:

METAR-TAF

Oro uostai :

Vamdrup

Koldingas, Danija

platuma: 55-26N, ilguma: 009-20E, Aukštis: 44 m

Dabartinis oras

Ataskaita buvo paskelbta 27 minutes, ne 06:50 UTC
Vėjas 4 kt iš Pietų, svyruoja nuo Pietryčių ir Pietvakarių
Temperatūra 15°C
Drėgmė 82%
Slėgis 1021 hPa
Matomumas 10 km arba daugiau
Mažai debesys ne aukštis 3000 ft

METAR: EKVD 240650Z 18004KT 130V220 9999 FEW030 15/12 Q1021

Laikas: 09:17 (07:17 UTC)

Prognozė

Ataskaita buvo paskelbta 1 valandą ir 0 minutes, ne 06:17 UTC
Prognozė galioja nuo 24 metu 07 UTC su 24 metu 15 UTC
Vėjas 5 kt nuo kintamojo kryptimis
Matomumas 10 km arba daugiau
Išsisklaidę debesys ne aukštis 2500 ft

TAF: EKVD 240617Z 2407/2415 VRB05KT 9999 SCT025

Orai ataskaitas ir orų prognozės (METAR, TAF).

turimą stotys yra geltonos ir raudonos taškus žemėlapyje.

Perkelti pele per norėdami pamatyti stoties vardą.

Tada spustelėkite, norėdami matyti oro stebėjimo ir prognozės.

Norėdami pakeisti žemėlapį: spustelėkite ant žalios mygtukų su juodo kryžiaus žemyn,; žalią mygtuką su brūkšneliu, jei norite nutolinti; arba žalių rodyklių gretimoms žemėlapius.


METAR-TAF: